New Carlisle, Canada
Current Conditions -  °F | °C
As of 11:00 PM on Sunday 21 Dec 2014 (Local Time) from CZBF Reporting Station
Light Snow Light Snow  
Wind Chill: 21°   Ceiling: 1700
Heat Index: 21°   Visibility: 15mi
Dew Point: 16°   Wind: 2mph
Humidity: 80%   Direction: NA
Pressure: 30.43"   Gusts: NA
Location:  48.01°N, 65.34°W
Report Text: CZBF 220400Z VRB02KT 15SM -SN BKN017 M06/M09 A3043 RMK SC7 SLP307
Loading
Personal Weather Stations






























Interactive Weather Map New forecast layout! Learn more

10-Day Weather Forecast

Advertisements
Track Severe Weather on mobile